Time;durP1;ratioP1;P1;durP2;ratioP2;P2;SDS_P1;SDS_P2;PMS_P1;PMS_P2;Temp;Humidity;BMP_temperature;BMP_pressure;BME280_temperature;BME280_humidity;BME280_pressure;Samples;Min_cycle;Max_cycle;Signal;HPM_P1;HPM_P2
2021/06/22 00:00:15;;;;;;;6.60;6.00;;;25.50;95.30;;;;;;5094375;28;20469;-68
2021/06/22 00:02:42;;;;;;;6.60;6.10;;;25.40;95.70;;;;;;5094176;28;20472;-68
2021/06/22 00:05:09;;;;;;;7.40;6.80;;;25.40;96.00;;;;;;5093874;28;21014;-68
2021/06/22 00:07:36;;;;;;;7.40;6.70;;;25.40;96.60;;;;;;5094128;28;20470;-67
2021/06/22 00:10:04;;;;;;;7.37;6.57;;;25.30;96.70;;;;;;5093591;28;20473;-67
2021/06/22 00:12:31;;;;;;;7.23;6.43;;;25.30;97.00;;;;;;5093801;28;20476;-67
2021/06/22 00:14:59;;;;;;;7.47;6.90;;;25.30;97.30;;;;;;5093621;28;20997;-68
2021/06/22 00:17:26;;;;;;;8.07;7.23;;;25.20;97.60;;;;;;5093885;28;21021;-67
2021/06/22 00:19:55;;;;;;;7.70;6.87;;;25.10;97.80;;;;;;5093359;28;20462;-68
2021/06/22 00:22:22;;;;;;;6.90;6.30;;;25.10;98.00;;;;;;5093961;28;20473;-67
2021/06/22 00:24:49;;;;;;;7.27;6.57;;;25.10;98.70;;;;;;5093358;28;20461;-68
2021/06/22 00:27:16;;;;;;;9.70;8.27;;;25.00;98.50;;;;;;5093682;28;20475;-68
2021/06/22 00:29:44;;;;;;;12.03;8.93;;;25.00;98.80;;;;;;5093640;28;20975;-67
2021/06/22 00:32:12;;;;;;;7.37;6.70;;;25.00;99.10;;;;;;5093459;28;20453;-67
2021/06/22 00:34:39;;;;;;;8.57;7.77;;;25.00;99.10;;;;;;5093584;28;20571;-68
2021/06/22 00:37:06;;;;;;;7.90;6.27;;;25.00;99.30;;;;;;5093061;28;20970;-68
2021/06/22 00:39:33;;;;;;;8.30;7.70;;;25.00;99.40;;;;;;5093484;28;20543;-68
2021/06/22 00:42:00;;;;;;;7.90;7.20;;;25.00;99.50;;;;;;5083004;28;20458;-67
2021/06/22 00:44:27;;;;;;;9.20;8.30;;;25.00;99.70;;;;;;5073019;28;20476;-67
2021/06/22 00:46:54;;;;;;;7.97;7.27;;;25.00;99.90;;;;;;5072472;28;20480;-67
2021/06/22 00:49:22;;;;;;;9.13;8.40;;;25.00;99.90;;;;;;5072559;28;20811;-66
2021/06/22 00:51:49;;;;;;;7.57;6.73;;;25.00;99.90;;;;;;5072207;28;20470;-68
2021/06/22 00:54:15;;;;;;;9.37;8.60;;;25.00;99.90;;;;;;5072727;28;20469;-68
2021/06/22 00:56:43;;;;;;;8.70;7.90;;;25.00;99.90;;;;;;5074190;28;20464;-68
2021/06/22 00:59:10;;;;;;;9.20;8.30;;;25.00;99.90;;;;;;5072271;28;20470;-68
2021/06/22 01:01:37;;;;;;;8.73;7.93;;;24.90;99.90;;;;;;5072893;28;20462;-68
2021/06/22 01:04:04;;;;;;;9.33;8.57;;;24.90;99.90;;;;;;5072476;28;20462;-68
2021/06/22 01:06:32;;;;;;;9.00;8.30;;;24.90;99.90;;;;;;5072811;28;20552;-68
2021/06/22 01:08:59;;;;;;;9.13;8.33;;;24.90;99.90;;;;;;5071970;28;20803;-67
2021/06/22 01:11:26;;;;;;;8.40;7.60;;;24.90;99.90;;;;;;5072619;28;20473;-67
2021/06/22 01:13:53;;;;;;;8.20;7.13;;;24.90;99.90;;;;;;5072214;28;20502;-67
2021/06/22 01:16:22;;;;;;;8.33;7.60;;;24.90;99.90;;;;;;5072864;28;20462;-67
2021/06/22 01:18:49;;;;;;;9.10;8.17;;;24.90;99.90;;;;;;5072652;28;20486;-66
2021/06/22 01:21:17;;;;;;;7.93;7.00;;;24.90;99.90;;;;;;5072216;28;20455;-68
2021/06/22 01:23:44;;;;;;;9.07;8.37;;;24.80;99.90;;;;;;5072705;28;20468;-68
2021/06/22 01:26:11;;;;;;;8.27;7.57;;;24.90;99.90;;;;;;5072087;28;20492;-68
2021/06/22 01:28:41;;;;;;;7.87;7.27;;;24.80;99.90;;;;;;5072534;28;20470;-67
2021/06/22 01:31:08;;;;;;;7.93;7.23;;;24.80;99.90;;;;;;5071973;28;20466;-67
2021/06/22 01:33:35;;;;;;;10.20;8.33;;;24.80;99.90;;;;;;5085289;28;20549;-67
2021/06/22 01:36:02;;;;;;;8.80;8.10;;;24.80;99.90;;;;;;5092209;28;20479;-67
2021/06/22 01:38:34;;;;;;;8.10;7.50;;;24.80;99.90;;;;;;5092696;28;20549;-68
2021/06/22 01:41:01;;;;;;;10.50;9.40;;;24.80;99.90;;;;;;5090323;28;20540;-67
2021/06/22 01:43:28;;;;;;;8.93;8.23;;;24.70;99.90;;;;;;5072431;28;20454;-68
2021/06/22 01:45:58;;;;;;;8.57;7.87;;;24.70;99.90;;;;;;5072150;28;20484;-68
2021/06/22 01:48:25;;;;;;;8.23;7.60;;;24.70;99.90;;;;;;5072449;28;20466;-67
2021/06/22 01:50:51;;;;;;;8.53;7.57;;;24.70;99.90;;;;;;5072123;28;20549;-69
2021/06/22 01:53:18;;;;;;;10.13;9.10;;;24.60;99.90;;;;;;5072112;28;20458;-68
2021/06/22 01:55:49;;;;;;;10.30;9.00;;;24.60;99.90;;;;;;5080625;28;20461;-68
2021/06/22 01:58:18;;;;;;;8.27;7.57;;;24.50;99.90;;;;;;5091978;28;20535;-68
2021/06/22 02:00:51;;;;;;;8.63;7.83;;;24.50;99.90;;;;;;5092662;28;21014;-68
2021/06/22 02:03:20;;;;;;;8.00;7.40;;;24.50;99.90;;;;;;5096206;28;20454;-68
2021/06/22 02:05:48;;;;;;;8.00;7.33;;;24.50;99.90;;;;;;5096475;28;21114;-68
2021/06/22 02:08:15;;;;;;;8.60;7.87;;;24.50;99.90;;;;;;5095833;28;20473;-68
2021/06/22 02:10:42;;;;;;;8.90;8.20;;;24.50;99.90;;;;;;5096266;28;20468;-68
2021/06/22 02:13:11;;;;;;;8.50;7.80;;;24.40;99.90;;;;;;5096066;28;20459;-68
2021/06/22 02:15:39;;;;;;;9.40;8.50;;;24.40;99.90;;;;;;5096331;28;20461;-69
2021/06/22 02:18:06;;;;;;;8.37;7.60;;;24.40;99.90;;;;;;5095710;28;20467;-69
2021/06/22 02:20:34;;;;;;;9.23;8.27;;;24.40;99.90;;;;;;5096116;28;20464;-68
2021/06/22 02:23:01;;;;;;;12.10;8.17;;;24.40;99.90;;;;;;5095757;28;20468;-68
2021/06/22 02:25:28;;;;;;;9.33;8.10;;;24.40;99.90;;;;;;5096284;28;20453;-68
2021/06/22 02:28:02;;;;;;;8.83;7.97;;;24.40;99.90;;;;;;5096138;28;21069;-68
2021/06/22 02:30:30;;;;;;;7.70;7.10;;;24.40;99.90;;;;;;5095695;28;20461;-68
2021/06/22 02:32:57;;;;;;;9.43;8.63;;;24.40;99.90;;;;;;5088247;28;20466;-68
2021/06/22 02:35:25;;;;;;;9.13;8.23;;;24.40;99.90;;;;;;5075213;28;20544;-68
2021/06/22 02:37:52;;;;;;;7.37;6.77;;;24.40;99.90;;;;;;5075539;28;20480;-68
2021/06/22 02:40:20;;;;;;;8.27;7.53;;;24.40;99.90;;;;;;5075312;28;20462;-68
2021/06/22 02:42:47;;;;;;;8.53;7.73;;;24.40;99.90;;;;;;5091976;28;20469;-68
2021/06/22 02:45:15;;;;;;;8.20;7.50;;;24.40;99.90;;;;;;5095380;28;20548;-68
2021/06/22 02:47:44;;;;;;;7.13;6.53;;;24.30;99.90;;;;;;5095693;28;20465;-68
2021/06/22 02:50:12;;;;;;;7.53;6.73;;;24.30;99.90;;;;;;5095197;28;20792;-68
2021/06/22 02:52:39;;;;;;;7.97;7.30;;;24.30;99.90;;;;;;5095679;28;20457;-68
2021/06/22 02:55:07;;;;;;;7.90;7.30;;;24.30;99.90;;;;;;5095597;28;20461;-68
2021/06/22 02:57:44;;;;;;;8.20;7.40;;;24.20;99.90;;;;;;5095792;28;20464;-68
2021/06/22 03:00:12;;;;;;;7.63;7.10;;;24.20;99.90;;;;;;5095137;28;20458;-68
2021/06/22 03:02:40;;;;;;;7.60;7.00;;;24.20;99.90;;;;;;5095480;28;20795;-68
2021/06/22 03:05:09;;;;;;;7.20;6.50;;;24.20;99.90;;;;;;5094798;28;20512;-68
2021/06/22 03:07:35;;;;;;;8.67;7.80;;;24.20;99.90;;;;;;5095274;28;20799;-69
2021/06/22 03:10:03;;;;;;;7.80;7.20;;;24.10;99.90;;;;;;5094798;28;20481;-68
2021/06/22 03:12:30;;;;;;;9.17;8.20;;;24.10;99.90;;;;;;5094436;28;20493;-69
2021/06/22 03:14:57;;;;;;;8.97;8.20;;;24.00;99.90;;;;;;5094324;28;20472;-68
2021/06/22 03:17:23;;;;;;;8.60;7.90;;;24.00;99.90;;;;;;5095275;28;20457;-67
2021/06/22 03:19:50;;;;;;;9.00;8.30;;;24.00;99.90;;;;;;5094560;28;20461;-68
2021/06/22 03:22:18;;;;;;;10.47;9.40;;;24.00;99.90;;;;;;5095059;28;20545;-68
2021/06/22 03:24:45;;;;;;;10.63;9.73;;;24.00;99.90;;;;;;5095145;28;20475;-68
2021/06/22 03:27:12;;;;;;;11.27;10.23;;;24.00;99.90;;;;;;5094362;28;20477;-68
2021/06/22 03:29:39;;;;;;;9.97;9.17;;;23.90;99.90;;;;;;5094778;28;20465;-68
2021/06/22 03:32:06;;;;;;;11.67;10.57;;;23.90;99.90;;;;;;5094393;28;20515;-68
2021/06/22 03:34:33;;;;;;;11.77;10.87;;;23.90;99.90;;;;;;5094714;28;20462;-68
2021/06/22 03:37:00;;;;;;;13.77;12.57;;;23.90;99.90;;;;;;5094350;28;20817;-68
2021/06/22 03:39:28;;;;;;;9.50;8.80;;;23.80;99.90;;;;;;5094528;28;20480;-68
2021/06/22 03:41:55;;;;;;;10.07;9.27;;;23.80;99.90;;;;;;5084797;28;20818;-68
2021/06/22 03:44:23;;;;;;;10.20;9.40;;;23.80;99.90;;;;;;5074364;28;20537;-68
2021/06/22 03:46:50;;;;;;;11.53;10.53;;;23.80;99.90;;;;;;5074059;28;20467;-68
2021/06/22 03:49:16;;;;;;;14.33;10.60;;;23.80;99.90;;;;;;5073861;28;20557;-68
2021/06/22 03:51:43;;;;;;;13.43;9.87;;;23.80;99.90;;;;;;5074168;28;20470;-68
2021/06/22 03:54:11;;;;;;;10.10;9.23;;;23.80;99.90;;;;;;5073667;28;20476;-67
2021/06/22 03:56:39;;;;;;;9.70;8.90;;;23.80;99.90;;;;;;5089897;28;20566;-67
2021/06/22 03:59:06;;;;;;;9.83;8.93;;;23.80;99.90;;;;;;5093701;28;20470;-67
2021/06/22 04:01:33;;;;;;;10.67;9.57;;;23.80;99.90;;;;;;5094332;28;20799;-67
2021/06/22 04:03:59;;;;;;;12.20;9.50;;;23.80;99.90;;;;;;5093658;28;20461;-66
2021/06/22 04:06:26;;;;;;;10.67;9.67;;;23.80;99.90;;;;;;5094272;28;20457;-68
2021/06/22 04:08:53;;;;;;;12.43;8.83;;;23.80;99.90;;;;;;5091188;28;20564;-66
2021/06/22 04:11:20;;;;;;;9.90;9.10;;;23.70;99.90;;;;;;5073647;28;20537;-67
2021/06/22 04:13:48;;;;;;;8.93;8.03;;;23.70;99.90;;;;;;5073908;28;20472;-69
2021/06/22 04:16:15;;;;;;;12.30;11.00;;;23.70;99.90;;;;;;5073240;28;20474;-68
2021/06/22 04:18:42;;;;;;;10.67;9.67;;;23.70;99.90;;;;;;5073600;28;20469;-67
2021/06/22 04:21:09;;;;;;;10.63;9.63;;;23.70;99.90;;;;;;5073190;28;20472;-67
2021/06/22 04:23:36;;;;;;;9.80;8.80;;;23.70;99.90;;;;;;5073467;28;20465;-68
2021/06/22 04:26:03;;;;;;;10.33;9.43;;;23.70;99.90;;;;;;5073182;28;20908;-68
2021/06/22 04:28:30;;;;;;;13.40;11.10;;;23.70;99.90;;;;;;5073476;28;20534;-68
2021/06/22 04:30:58;;;;;;;14.10;11.67;;;23.70;99.90;;;;;;5072899;28;20972;-67
2021/06/22 04:33:25;;;;;;;14.57;13.23;;;23.70;99.90;;;;;;5073425;28;20497;-68
2021/06/22 04:35:52;;;;;;;15.17;13.67;;;23.70;99.90;;;;;;5073341;28;20489;-68
2021/06/22 04:38:19;;;;;;;14.40;13.20;;;23.60;99.90;;;;;;5072813;28;20469;-68
2021/06/22 04:40:47;;;;;;;15.37;12.77;;;23.60;99.90;;;;;;5073368;28;20550;-68
2021/06/22 04:43:13;;;;;;;15.10;13.50;;;23.60;99.90;;;;;;5072810;28;20463;-68
2021/06/22 04:45:40;;;;;;;15.73;14.27;;;23.60;99.90;;;;;;5080674;28;20468;-68
2021/06/22 04:48:09;;;;;;;19.57;14.90;;;23.50;99.90;;;;;;5092891;28;20565;-68
2021/06/22 04:50:36;;;;;;;16.13;13.73;;;23.50;99.90;;;;;;5093292;28;20471;-68
2021/06/22 04:53:03;;;;;;;13.37;12.10;;;23.40;99.90;;;;;;5092831;28;20461;-68
2021/06/22 04:55:30;;;;;;;16.20;14.47;;;23.40;99.90;;;;;;5093303;28;20529;-68
2021/06/22 04:57:59;;;;;;;21.03;15.73;;;23.40;99.90;;;;;;5092822;28;20948;-68
2021/06/22 05:00:27;;;;;;;18.50;14.80;;;23.40;99.90;;;;;;5093154;28;21032;-68
2021/06/22 05:02:54;;;;;;;27.10;17.10;;;23.40;99.90;;;;;;5092800;28;20473;-67
2021/06/22 05:05:24;;;;;;;27.10;18.50;;;23.40;99.90;;;;;;5092529;28;20506;-68
2021/06/22 05:07:51;;;;;;;20.70;17.20;;;23.40;99.90;;;;;;5093074;28;20469;-68
2021/06/22 05:10:18;;;;;;;27.50;19.03;;;23.30;99.90;;;;;;5092485;28;20473;-68
2021/06/22 05:12:46;;;;;;;25.93;19.23;;;23.30;99.90;;;;;;5092839;28;20473;-69
2021/06/22 05:15:14;;;;;;;17.53;15.17;;;23.20;99.90;;;;;;5092580;28;20477;-68
2021/06/22 05:17:41;;;;;;;21.13;17.80;;;23.20;99.90;;;;;;5092865;28;20811;-68
2021/06/22 05:20:08;;;;;;;18.00;16.10;;;23.20;99.90;;;;;;5092538;28;20472;-68
2021/06/22 05:22:37;;;;;;;22.20;15.87;;;23.10;99.90;;;;;;5093048;28;20472;-68
2021/06/22 05:25:05;;;;;;;17.37;13.10;;;23.10;99.90;;;;;;5092362;28;20469;-68
2021/06/22 05:27:32;;;;;;;17.90;14.00;;;23.00;99.90;;;;;;5092543;28;20465;-68
2021/06/22 05:29:59;;;;;;;18.57;13.97;;;23.00;99.90;;;;;;5092751;28;20465;-68
2021/06/22 05:32:26;;;;;;;20.43;14.30;;;23.00;99.90;;;;;;5092329;28;20495;-68
2021/06/22 05:34:52;;;;;;;13.80;12.37;;;23.00;99.90;;;;;;5092380;28;20471;-68
2021/06/22 05:37:20;;;;;;;16.40;12.63;;;22.90;99.90;;;;;;5091578;28;20465;-67
2021/06/22 05:39:49;;;;;;;12.30;10.83;;;22.90;99.90;;;;;;5092622;28;20464;-68
2021/06/22 05:42:16;;;;;;;14.93;11.80;;;22.90;99.90;;;;;;5079774;28;20459;-68
2021/06/22 05:44:43;;;;;;;12.13;10.57;;;22.80;99.90;;;;;;5072477;28;20490;-67
2021/06/22 05:47:10;;;;;;;13.33;9.93;;;22.80;99.90;;;;;;5091757;28;20465;-68
2021/06/22 05:49:38;;;;;;;13.00;8.60;;;22.80;99.90;;;;;;5092516;28;20553;-67
2021/06/22 05:52:05;;;;;;;10.60;8.20;;;22.70;99.90;;;;;;5092210;28;20785;-67
2021/06/22 05:54:32;;;;;;;11.90;9.80;;;22.70;99.90;;;;;;5092420;28;20959;-68
2021/06/22 05:57:00;;;;;;;12.27;9.47;;;22.70;99.90;;;;;;5092414;28;20461;-67
2021/06/22 05:59:27;;;;;;;9.20;7.23;;;22.70;99.90;;;;;;5092283;28;20464;-68
2021/06/22 06:01:54;;;;;;;10.83;8.30;;;22.70;99.90;;;;;;5092539;28;20457;-67
2021/06/22 06:04:24;;;;;;;17.13;9.80;;;22.60;99.90;;;;;;5091859;28;20470;-68
2021/06/22 06:06:51;;;;;;;12.53;9.07;;;22.70;99.90;;;;;;5092394;28;20529;-68
2021/06/22 06:09:18;;;;;;;9.00;8.27;;;22.60;99.90;;;;;;5091775;28;20810;-68
2021/06/22 06:11:45;;;;;;;12.23;10.93;;;22.60;99.90;;;;;;5092133;28;20469;-68
2021/06/22 06:14:13;;;;;;;17.90;16.10;;;22.60;99.90;;;;;;5092066;28;21028;-68
2021/06/22 06:16:40;;;;;;;15.70;13.83;;;22.60;99.90;;;;;;5092356;28;20461;-69
2021/06/22 06:19:07;;;;;;;15.97;12.57;;;22.60;99.90;;;;;;5091469;28;20992;-68
2021/06/22 06:21:34;;;;;;;14.20;12.37;;;22.50;99.90;;;;;;5092286;28;20461;-68
2021/06/22 06:24:01;;;;;;;15.90;11.73;;;22.50;99.90;;;;;;5092155;28;20651;-69
2021/06/22 06:26:32;;;;;;;13.10;11.80;;;22.50;99.90;;;;;;5091866;28;20450;-67
2021/06/22 06:29:05;;;;;;;9.80;9.00;;;22.40;99.90;;;;;;5092371;28;20470;-68
2021/06/22 06:31:33;;;;;;;8.80;7.90;;;22.40;99.90;;;;;;5091771;28;20453;-68
2021/06/22 06:34:00;;;;;;;8.90;7.10;;;22.40;99.90;;;;;;5092152;28;20465;-68
2021/06/22 06:36:27;;;;;;;9.10;8.20;;;22.30;99.90;;;;;;5091796;28;20457;-69
2021/06/22 06:38:54;;;;;;;8.20;7.40;;;22.40;99.90;;;;;;5091941;28;20508;-67
2021/06/22 06:41:21;;;;;;;6.70;6.10;;;22.40;99.90;;;;;;5086956;28;20462;-67
2021/06/22 06:43:47;;;;;;;7.80;6.03;;;22.40;99.90;;;;;;5071891;28;21093;-68
2021/06/22 06:46:14;;;;;;;8.93;7.07;;;22.40;99.90;;;;;;5071422;28;20472;-68
2021/06/22 06:48:42;;;;;;;11.53;10.47;;;22.40;99.90;;;;;;5073331;28;20462;-67
2021/06/22 06:51:09;;;;;;;7.40;6.70;;;22.40;99.90;;;;;;5074734;28;20500;-66
2021/06/22 06:53:36;;;;;;;5.50;5.00;;;22.40;99.90;;;;;;5075196;28;20538;-68
2021/06/22 06:56:03;;;;;;;6.23;5.33;;;22.50;99.90;;;;;;5086081;28;20466;-68
2021/06/22 06:58:30;;;;;;;6.20;5.60;;;22.50;99.90;;;;;;5094554;28;20421;-68
2021/06/22 07:00:57;;;;;;;5.20;4.70;;;22.50;99.80;;;;;;5095291;28;20229;-68
2021/06/22 07:03:24;;;;;;;4.90;4.37;;;22.50;99.60;;;;;;5095016;28;20476;-68
2021/06/22 07:05:52;;;;;;;4.70;4.20;;;22.50;99.50;;;;;;5095445;28;20471;-68
2021/06/22 07:08:19;;;;;;;5.43;4.67;;;22.50;99.40;;;;;;5094866;28;20469;-67
2021/06/22 07:10:45;;;;;;;7.10;6.50;;;22.50;99.40;;;;;;5095079;28;20450;-67
2021/06/22 07:13:16;;;;;;;5.30;4.87;;;22.50;99.30;;;;;;5094784;28;20457;-67
2021/06/22 07:15:44;;;;;;;4.37;3.90;;;22.50;99.40;;;;;;5095370;28;20600;-67
2021/06/22 07:18:11;;;;;;;4.10;3.70;;;22.50;99.30;;;;;;5094696;28;20477;-66
2021/06/22 07:20:38;;;;;;;3.00;2.73;;;22.60;99.20;;;;;;5095019;28;20461;-68
2021/06/22 07:23:06;;;;;;;7.20;4.00;;;22.60;99.10;;;;;;5085759;28;20466;-68
2021/06/22 07:25:33;;;;;;;7.30;4.60;;;22.60;99.00;;;;;;5074373;28;20462;-68
2021/06/22 07:28:00;;;;;;;4.93;4.30;;;22.60;99.00;;;;;;5074535;28;20478;-68
2021/06/22 07:30:27;;;;;;;5.73;4.80;;;22.70;98.90;;;;;;5074319;28;20554;-68
2021/06/22 07:32:56;;;;;;;5.30;4.90;;;22.70;98.70;;;;;;5074590;28;20516;-68
2021/06/22 07:35:24;;;;;;;5.13;4.63;;;22.70;98.60;;;;;;5074009;28;20474;-68
2021/06/22 07:37:51;;;;;;;10.83;4.53;;;22.70;98.50;;;;;;5074365;28;20820;-68
2021/06/22 07:40:20;;;;;;;7.20;5.20;;;22.70;98.50;;;;;;5074053;28;20531;-67
2021/06/22 07:42:47;;;;;;;8.20;6.97;;;22.80;98.30;;;;;;5090921;28;20500;-67
2021/06/22 07:45:15;;;;;;;6.93;6.00;;;22.80;98.30;;;;;;5094042;28;20512;-67
2021/06/22 07:47:42;;;;;;;5.93;4.93;;;22.80;98.20;;;;;;5094255;28;20485;-67
2021/06/22 07:50:11;;;;;;;4.87;4.47;;;22.80;98.10;;;;;;5094621;28;20465;-68
2021/06/22 07:52:37;;;;;;;7.03;5.47;;;22.80;98.00;;;;;;5093960;28;20529;-68
2021/06/22 07:55:05;;;;;;;5.97;4.87;;;22.80;97.90;;;;;;5094321;28;21954;-68
2021/06/22 07:57:34;;;;;;;6.47;5.03;;;22.80;97.90;;;;;;5093738;28;20470;-68
2021/06/22 08:00:19;;;;;;;7.23;6.63;;;22.80;97.90;;;;;;5093895;28;20530;-68
2021/06/22 08:02:46;;;;;;;6.93;6.37;;;22.80;97.80;;;;;;5093965;28;20994;-68
2021/06/22 08:05:13;;;;;;;6.53;4.50;;;22.80;97.70;;;;;;5094240;28;20465;-68
2021/06/22 08:07:40;;;;;;;4.53;4.13;;;22.80;97.80;;;;;;5093504;28;20557;-67
2021/06/22 08:10:08;;;;;;;7.70;5.40;;;22.70;97.80;;;;;;5094301;28;20472;-67
2021/06/22 08:12:37;;;;;;;4.90;4.13;;;22.70;98.10;;;;;;5093454;28;20564;-68
2021/06/22 08:15:04;;;;;;;7.10;3.70;;;22.60;98.10;;;;;;5093941;28;20539;-67
2021/06/22 08:17:31;;;;;;;7.00;4.30;;;22.60;98.30;;;;;;5093475;28;20470;-67
2021/06/22 08:19:58;;;;;;;4.13;3.77;;;22.50;98.70;;;;;;5093964;28;20777;-67
2021/06/22 08:22:25;;;;;;;5.93;4.23;;;22.50;98.90;;;;;;5093415;28;20466;-68
2021/06/22 08:24:52;;;;;;;5.90;5.17;;;22.40;99.20;;;;;;5093659;28;20464;-69
2021/06/22 08:27:19;;;;;;;5.73;4.57;;;22.40;99.30;;;;;;5093699;28;20465;-66
2021/06/22 08:29:47;;;;;;;4.60;4.20;;;22.30;99.30;;;;;;5093396;28;20468;-68
2021/06/22 08:32:13;;;;;;;5.00;4.30;;;22.30;99.50;;;;;;5093732;28;20788;-68
2021/06/22 08:34:41;;;;;;;4.60;4.20;;;22.20;99.60;;;;;;5092948;28;20484;-68
2021/06/22 08:37:07;;;;;;;4.50;4.13;;;22.20;99.80;;;;;;5093439;28;20461;-68
2021/06/22 08:39:36;;;;;;;5.20;4.20;;;22.20;99.90;;;;;;5092999;28;20462;-68
2021/06/22 08:42:07;;;;;;;8.87;6.00;;;22.10;99.90;;;;;;5082588;28;20808;-68
2021/06/22 08:44:36;;;;;;;8.97;7.10;;;22.10;99.90;;;;;;5072790;28;20825;-68
2021/06/22 08:47:05;;;;;;;5.97;5.47;;;22.10;99.90;;;;;;5072950;28;20470;-66
2021/06/22 08:49:34;;;;;;;5.10;4.70;;;22.10;99.90;;;;;;5072620;28;20466;-68
2021/06/22 08:52:01;;;;;;;4.97;4.53;;;22.00;99.90;;;;;;5073022;28;20485;-67
2021/06/22 08:54:29;;;;;;;5.23;4.67;;;22.00;99.90;;;;;;5072843;28;20485;-67
2021/06/22 08:56:58;;;;;;;5.80;3.90;;;21.90;99.90;;;;;;5091080;28;20457;-68
2021/06/22 08:59:25;;;;;;;6.93;6.30;;;21.90;99.90;;;;;;5083155;28;20523;-68
2021/06/22 09:01:52;;;;;;;8.40;5.90;;;21.90;99.90;;;;;;5073040;28;20792;-68
2021/06/22 09:04:20;;;;;;;9.73;8.73;;;21.90;99.90;;;;;;5072765;28;20462;-68
2021/06/22 09:06:48;;;;;;;5.27;4.77;;;21.90;99.90;;;;;;5072269;28;20471;-67
2021/06/22 09:09:14;;;;;;;7.20;6.50;;;21.80;99.70;;;;;;5072908;28;20470;-67
2021/06/22 09:11:41;;;;;;;9.20;7.87;;;21.80;99.60;;;;;;5071316;28;20490;-67
2021/06/22 09:14:10;;;;;;;5.93;5.00;;;21.70;99.60;;;;;;5072611;28;20777;-68
2021/06/22 09:16:40;;;;;;;6.63;5.37;;;21.70;99.60;;;;;;5072309;28;21028;-68
2021/06/22 09:19:09;;;;;;;6.37;5.87;;;21.70;99.40;;;;;;5072495;28;21117;-68
2021/06/22 09:21:42;;;;;;;4.97;4.53;;;21.70;99.40;;;;;;5072153;28;20475;-68
2021/06/22 09:24:17;;;;;;;4.93;4.50;;;21.70;99.40;;;;;;5072629;28;20486;-68
2021/06/22 09:26:45;;;;;;;5.50;4.87;;;21.60;99.10;;;;;;5072360;28;20489;-68
2021/06/22 09:29:14;;;;;;;4.77;4.37;;;21.60;99.10;;;;;;5072458;28;20470;-68
2021/06/22 09:31:50;;;;;;;8.20;5.67;;;21.70;99.10;;;;;;5072150;28;20497;-68
2021/06/22 09:34:19;;;;;;;6.20;4.83;;;21.70;98.90;;;;;;5072559;28;20480;-68
2021/06/22 09:37:04;;;;;;;6.20;4.80;;;21.70;98.80;;;;;;5086779;28;20553;-68
2021/06/22 09:39:31;;;;;;;23.53;21.00;;;21.70;98.70;;;;;;5092386;28;20929;-68
2021/06/22 09:42:12;;;;;;;9.27;7.30;;;21.70;98.60;;;;;;5082735;28;21008;-68
2021/06/22 09:44:43;;;;;;;6.47;5.87;;;21.70;98.40;;;;;;5071958;28;20542;-68
2021/06/22 09:47:11;;;;;;;5.53;5.03;;;21.70;98.30;;;;;;5072306;28;20466;-68
2021/06/22 09:49:39;;;;;;;4.67;4.27;;;21.70;98.20;;;;;;5071853;28;20470;-68
2021/06/22 09:52:09;;;;;;;5.30;4.70;;;21.80;98.30;;;;;;5072250;28;20967;-68
2021/06/22 09:54:48;;;;;;;5.13;4.23;;;21.70;98.00;;;;;;5071985;28;20976;-68
2021/06/22 09:57:18;;;;;;;5.20;4.80;;;21.80;97.90;;;;;;5072219;28;20468;-67
2021/06/22 09:59:52;;;;;;;6.73;4.73;;;21.80;98.10;;;;;;5071940;28;20458;-68
2021/06/22 10:02:20;;;;;;;5.20;4.30;;;21.80;98.10;;;;;;5072355;28;20472;-68
2021/06/22 10:04:48;;;;;;;7.20;3.77;;;21.90;98.50;;;;;;5071850;28;20466;-69
2021/06/22 10:07:18;;;;;;;5.43;4.83;;;21.90;98.10;;;;;;5072070;28;20462;-68
2021/06/22 10:09:52;;;;;;;6.73;3.87;;;22.00;97.90;;;;;;5071838;28;20462;-68
2021/06/22 10:12:19;;;;;;;3.60;3.30;;;22.00;97.80;;;;;;5072012;28;20465;-68
2021/06/22 10:14:47;;;;;;;4.30;3.90;;;22.10;97.70;;;;;;5071835;28;20469;-68
2021/06/22 10:17:18;;;;;;;5.23;4.73;;;22.20;97.60;;;;;;5071947;28;20468;-68
2021/06/22 10:19:46;;;;;;;3.07;2.87;;;22.20;97.60;;;;;;5071527;28;20516;-68
2021/06/22 10:22:14;;;;;;;7.83;4.93;;;22.30;99.10;;;;;;5072786;28;20469;-69
2021/06/22 10:24:45;;;;;;;5.80;4.50;;;22.40;98.30;;;;;;5075290;28;20867;-68
2021/06/22 10:27:13;;;;;;;4.20;3.90;;;22.50;97.90;;;;;;5075758;28;20458;-69
2021/06/22 10:29:40;;;;;;;4.90;4.40;;;22.60;97.80;;;;;;5074874;28;20472;-66
2021/06/22 10:32:08;;;;;;;7.20;4.30;;;22.60;97.50;;;;;;5073661;28;20514;-68
2021/06/22 10:34:36;;;;;;;4.20;3.77;;;22.60;97.50;;;;;;5079185;28;20558;-68
2021/06/22 10:37:09;;;;;;;4.40;4.00;;;22.60;97.60;;;;;;5090929;28;20561;-68
2021/06/22 10:39:41;;;;;;;4.27;3.60;;;22.60;97.70;;;;;;5094334;28;20479;-68
2021/06/22 10:42:14;;;;;;;6.60;5.50;;;22.70;97.50;;;;;;5095421;28;20464;-68
2021/06/22 10:44:44;;;;;;;11.17;9.90;;;22.70;97.20;;;;;;5095246;28;20483;-69
2021/06/22 10:47:19;;;;;;;6.27;5.67;;;22.60;97.10;;;;;;5093420;28;20492;-68
2021/06/22 10:50:16;;;;;;;5.53;4.50;;;22.60;97.00;;;;;;5087032;28;20981;-68
2021/06/22 10:53:04;;;;;;;4.23;3.87;;;22.50;96.90;;;;;;5084677;28;20469;-68
2021/06/22 10:56:17;;;;;;;28.87;26.20;;;22.50;96.90;;;;;;5095168;28;20540;-68
2021/06/22 10:59:14;;;;;;;12.23;11.00;;;22.50;97.10;;;;;;5094887;28;20853;-68
2021/06/22 11:02:03;;;;;;;6.80;5.77;;;22.50;97.40;;;;;;5094573;28;21852;-68
2021/06/22 11:04:30;;;;;;;6.10;4.80;;;22.40;97.50;;;;;;5090562;28;20470;-68
2021/06/22 11:07:03;;;;;;;5.97;5.40;;;22.50;97.50;;;;;;5095326;28;20469;-68
2021/06/22 11:09:30;;;;;;;5.13;4.63;;;22.50;97.30;;;;;;5094643;28;20479;-68
2021/06/22 11:12:22;;;;;;;5.90;3.83;;;22.50;97.30;;;;;;5094908;28;20469;-68
2021/06/22 11:15:04;;;;;;;3.87;3.57;;;22.50;97.30;;;;;;5094375;28;20463;-69
2021/06/22 11:17:56;;;;;;;4.57;3.50;;;22.40;97.20;;;;;;5094434;28;20483;-69
2021/06/22 11:20:23;;;;;;;4.00;3.60;;;22.50;97.20;;;;;;5084679;28;20461;-68
2021/06/22 11:23:08;;;;;;;7.20;4.10;;;22.40;97.10;;;;;;5094339;28;20458;-68
2021/06/22 11:25:53;;;;;;;6.43;5.77;;;22.40;97.30;;;;;;5094304;28;20475;-68
2021/06/22 11:28:22;;;;;;;6.97;5.57;;;22.40;97.20;;;;;;5083543;28;20476;-68
2021/06/22 11:30:52;;;;;;;7.23;5.70;;;22.40;97.10;;;;;;5093999;28;20462;-69
2021/06/22 11:33:44;;;;;;;4.30;3.47;;;22.40;97.00;;;;;;5094163;28;21369;-68
2021/06/22 11:36:30;;;;;;;5.83;4.10;;;22.40;96.90;;;;;;5094344;28;20935;-68
2021/06/22 11:39:21;;;;;;;5.03;4.10;;;22.50;96.90;;;;;;5089572;28;20470;-68
2021/06/22 11:42:20;;;;;;;5.80;5.30;;;22.50;96.90;;;;;;5094264;28;20468;-69
2021/06/22 11:44:49;;;;;;;8.80;5.17;;;22.50;96.70;;;;;;5084309;28;20556;-68
2021/06/22 11:47:54;;;;;;;4.87;4.37;;;22.60;96.60;;;;;;5093706;28;20511;-69
2021/06/22 11:50:28;;;;;;;6.93;4.27;;;22.60;96.40;;;;;;5094134;28;21340;-69
2021/06/22 11:53:01;;;;;;;10.03;4.20;;;22.60;96.30;;;;;;5094063;28;20465;-68
2021/06/22 11:55:28;;;;;;;5.70;4.30;;;22.70;96.30;;;;;;5093726;28;20549;-68
2021/06/22 11:57:57;;;;;;;20.30;17.47;;;22.70;96.20;;;;;;5094363;28;20813;-68
2021/06/22 12:00:26;;;;;;;9.33;8.33;;;22.80;96.60;;;;;;5093591;28;20457;-68
2021/06/22 12:02:54;;;;;;;6.67;5.57;;;22.90;96.20;;;;;;5093812;28;20484;-68
2021/06/22 12:05:24;;;;;;;8.77;4.80;;;23.00;95.70;;;;;;5093357;28;20474;-68
2021/06/22 12:08:01;;;;;;;7.17;4.20;;;23.10;95.70;;;;;;5094193;28;20473;-68
2021/06/22 12:10:43;;;;;;;10.43;4.07;;;23.10;95.70;;;;;;5080262;28;20465;-68
2021/06/22 12:13:10;;;;;;;8.83;6.60;;;23.20;95.50;;;;;;5093158;28;20477;-68
2021/06/22 12:15:39;;;;;;;15.60;14.00;;;23.30;95.10;;;;;;5093727;28;20461;-68
2021/06/22 12:18:07;;;;;;;20.10;16.47;;;23.30;95.00;;;;;;5093067;28;20487;-68
2021/06/22 12:20:37;;;;;;;19.13;16.33;;;23.40;95.10;;;;;;5093788;28;20465;-68
2021/06/22 12:23:08;;;;;;;6.97;6.27;;;23.50;95.00;;;;;;5093465;28;20475;-68
2021/06/22 12:25:37;;;;;;;8.40;7.60;;;23.60;94.80;;;;;;5093587;28;20457;-68
2021/06/22 12:28:05;;;;;;;11.73;9.80;;;23.70;94.40;;;;;;5087735;28;20473;-69
2021/06/22 12:30:37;;;;;;;7.80;7.10;;;23.70;94.40;;;;;;5072423;28;20481;-68
2021/06/22 12:33:12;;;;;;;6.80;5.70;;;23.80;94.10;;;;;;5090802;27;20465;-69
2021/06/22 12:35:42;;;;;;;5.07;4.67;;;23.80;93.90;;;;;;5086454;28;21306;-68
2021/06/22 12:38:10;;;;;;;6.70;3.60;;;23.90;93.60;;;;;;5089020;28;20496;-69
2021/06/22 12:40:41;;;;;;;7.87;5.27;;;24.00;93.30;;;;;;5082767;28;20458;-68
2021/06/22 12:43:08;;;;;;;4.03;3.63;;;23.90;93.30;;;;;;5077570;28;20484;-68
2021/06/22 12:45:35;;;;;;;4.43;3.87;;;23.90;93.10;;;;;;5076596;28;20447;-68
2021/06/22 12:48:03;;;;;;;4.00;3.50;;;23.90;93.00;;;;;;5085102;28;20479;-69
2021/06/22 12:50:32;;;;;;;6.50;4.10;;;23.90;93.10;;;;;;5080193;28;20476;-68
2021/06/22 12:53:03;;;;;;;6.17;3.90;;;23.90;93.00;;;;;;5088158;28;20469;-69